CST,Max TemperatureF,Mean TemperatureF,Min TemperatureF,Max Dew PointF,MeanDew PointF,Min DewpointF,Max Humidity, Mean Humidity, Min Humidity, Max Sea Level PressureIn, Mean Sea Level PressureIn, Min Sea Level PressureIn, Max VisibilityMiles, Mean VisibilityMiles, Min VisibilityMiles, Max Wind SpeedMPH, Mean Wind SpeedMPH, Max Gust SpeedMPH,PrecipitationIn, CloudCover, Events, WindDirDegrees
2014-1-1,70,53,36,51,39,31,83,65,47,30.21,30.07,29.92,10,10,10,25,15,32,0.00,0,,191
2014-1-2,46,35,23,29,21,18,75,55,34,30.49,30.42,30.21,10,10,10,28,13,35,0.00,0,,344
2014-1-3,53,36,19,29,22,16,92,60,28,30.48,30.31,30.09,10,10,10,20,10,24,0.00,0,,172
2014-1-4,70,55,39,53,45,32,93,70,47,30.06,29.89,29.75,10,10,10,28,16,33,0.00,1,,180
2014-1-5,59,43,26,55,25,13,87,63,39,30.52,30.14,29.74,10,10,10,30,20,38,0.00,1,,330
2014-1-6,32,24,16,13,7,2,73,52,31,30.79,30.68,30.54,10,10,10,22,10,28,0.00,0,,338
2014-1-7,46,32,18,19,12,8,74,48,22,30.62,30.48,30.32,10,10,10,22,14,28,0.00,2,,189
2014-1-8,51,45,38,50,42,19,100,70,39,30.31,30.19,30.12,10,4,1,25,10,30,0.18,8,Rain,157
2014-1-9,59,55,50,58,53,50,100,93,86,30.18,30.10,29.98,10,3,0,14,4,17,0.02,8,Fog,125
2014-1-10,71,59,47,62,59,47,100,84,68,29.98,29.86,29.70,10,7,2,23,11,28,0.08,6,Rain,187
2014-1-11,70,52,34,43,33,21,93,55,16,30.14,30.05,29.84,10,10,6,14,6,17,0.00,0,,289
2014-1-12,71,56,40,56,43,33,79,56,32,30.07,29.96,29.84,10,10,10,31,16,39,0.00,1,,189
2014-1-13,66,50,33,58,35,16,93,54,15,30.12,29.99,29.81,10,10,9,23,12,30,0.00,2,,276
2014-1-14,70,49,28,32,26,21,85,51,16,30.34,30.13,30.01,10,10,10,23,9,31,0.00,0,,263
2014-1-15,61,46,30,34,24,19,82,52,22,30.43,30.30,30.13,10,10,10,16,8,23,0.00,0,,281
2014-1-16,68,49,30,33,30,26,85,54,22,30.22,30.11,30.05,10,10,10,23,6,28,0.00,0,,300
2014-1-17,58,44,29,29,23,13,75,46,17,30.39,30.29,30.22,10,10,10,20,6,24,0.00,3,,331
2014-1-18,68,49,30,37,31,24,85,57,28,30.22,30.16,30.07,10,10,10,20,9,26,0.00,0,,216
2014-1-19,65,47,29,33,29,24,92,57,22,30.33,30.21,30.09,10,10,10,12,6,13,0.00,0,,208
2014-1-20,80,59,37,45,34,27,85,52,19,30.19,29.98,29.83,10,10,10,22,11,31,0.00,0,,241
2014-1-21,55,41,27,29,22,14,85,53,20,30.44,30.32,30.22,10,10,10,22,9,29,0.00,0,,336
2014-1-22,64,45,26,33,28,22,78,52,25,30.19,30.10,30.01,10,10,10,13,7,14,0.00,0,,152
2014-1-23,47,36,25,31,20,6,69,53,36,30.74,30.43,30.12,10,9,2,30,19,37,0.02,8,Rain-Snow,19
2014-1-24,41,33,24,20,10,2,69,49,29,30.74,30.58,30.33,10,10,10,16,10,21,0.00,4,,263
2014-1-25,66,46,25,38,27,20,88,55,22,30.30,30.13,30.00,10,10,10,14,6,17,0.00,0,,192
2014-1-26,75,60,45,41,36,25,76,50,23,29.96,29.80,29.65,10,10,10,21,9,26,T,2,,203
2014-1-27,51,41,31,32,11,-1,54,37,20,30.30,30.13,29.78,10,10,10,32,19,39,T,2,,353
2014-1-28,38,31,24,14,5,0,53,37,21,30.48,30.42,30.31,10,10,10,23,14,31,T,3,,3
2014-1-29,45,31,17,18,14,9,84,53,22,30.49,30.38,30.23,10,10,10,24,9,29,0.00,0,,193
2014-1-30,59,45,30,49,33,16,89,69,49,30.22,29.99,29.86,10,10,10,36,19,44,0.00,4,,181
2014-1-31,76,64,52,59,53,50,90,67,43,29.92,29.83,29.77,10,10,10,25,17,31,0.00,5,,178